Terminal Aerodrome Forecast
Issued by NWS

Home | Current Version | Previous Version | Text Only | Print | Product List | Glossary On
Versions: 1 2 3 4 5 6 7 8 9 10 11 12 13 14
000
FTUS42 KTBW 221100
TAFRSW
TAF
KRSW 221130Z 2212/2312 VRB03KT P6SM SCT100 OVC250
     FM221500 08005KT P6SM BKN100 OVC250
     FM221800 20005KT P6SM VCTS SCT035CB BKN050
     FM222100 15004KT P6SM SCT035 BKN050
     FM230300 07004KT P6SM SCT030 BKN200=

USA.gov is the U.S. government's official web portal to all federal, state and local government web resources and services.